Terminal Aerodrome Forecast
Issued by NWS

Home | Current Version | Previous Version | Text Only | Print | Product List | Glossary On
Versions: 1 2 3 4 5 6 7 8 9 10 11 12 13 14 15 16 17 18
000
FTUS42 KJAX 291454 AAB
TAFVQQ
TAF AMD
KVQQ 291454Z 2915/3012 VRB03KT P6SM SCT015 BKN200
      TEMPO 2915/2917 BKN015
     FM291800 09008KT P6SM VCTS SCT025CB BKN050
     FM300000 08004KT P6SM VCSH SCT025 BKN100 OVC200=

USA.gov is the U.S. government's official web portal to all federal, state and local government web resources and services.